KUNU/UNU METAR and TAF weather

Enter ICAO airport designator
Station Type Date Time Source
KUNU METAR 2019/12/09 13:15 UTC NOAA

KUNU 091315Z AUTO 00000KT 1/2SM FG OVC004 02/02 A2952 RMK AO2 T00150015


Station Type Date Time Source
KUNU Decoded METAR 2019/12/09 13:15 UTC NOAA

Juneau, Dodge County Airport, WI, United States (KUNU) 43-25-36N 088-42-12W
Dec 09, 2019 - 08:15 AM EST / 2019.12.09 1315 UTC
Wind: Calm:0
Visibility: 1/2 mile(s):0
Sky conditions: overcast
Weather: fog
Temperature: 34.7 F (1.5 C)
Dew Point: 34.7 F (1.5 C)
Relative Humidity: 100%
Pressure (altimeter): 29.52 in. Hg (999 hPa)
ob: KUNU 091315Z AUTO 00000KT 1/2SM FG OVC004 02/02 A2952 RMK AO2 T00150015
cycle: 13

Station Type Date Time Source
KUNU TAF UTC NOAA

Error!

Example: see airport list